createdAt,value
2023-04-06T00:00:16.945Z,4.10
2023-04-06T00:03:43.363Z,4.20
2023-04-06T00:07:07.949Z,5.83
2023-04-06T00:10:34.060Z,3.17
2023-04-06T00:14:01.160Z,3.40
2023-04-06T00:17:25.994Z,4.10
2023-04-06T00:20:51.976Z,3.20
2023-04-06T00:24:17.174Z,4.20
2023-04-06T00:27:42.183Z,4.63
2023-04-06T00:31:07.437Z,3.67
2023-04-06T00:34:31.089Z,3.73
2023-04-06T00:37:54.829Z,11.13
2023-04-06T00:41:21.621Z,4.00
2023-04-06T00:44:45.450Z,5.20
2023-04-06T00:48:11.410Z,3.73
2023-04-06T00:51:35.384Z,4.00
2023-04-06T00:55:00.316Z,6.67
2023-04-06T00:58:25.716Z,3.80
2023-04-06T01:01:57.987Z,3.93
2023-04-06T01:05:56.400Z,6.93
2023-04-06T01:09:24.354Z,5.43
2023-04-06T01:12:49.959Z,3.40
2023-04-06T01:16:22.191Z,3.43
2023-04-06T01:19:59.335Z,4.20
2023-04-06T01:23:28.667Z,3.33
2023-04-06T01:26:52.695Z,3.97
2023-04-06T01:30:18.231Z,5.13
2023-04-06T01:33:48.796Z,4.20
2023-04-06T01:37:15.645Z,4.43
2023-04-06T01:40:41.057Z,5.43
2023-04-06T01:44:05.544Z,6.40
2023-04-06T01:47:30.351Z,4.43
2023-04-06T01:50:58.707Z,4.23
2023-04-06T01:54:27.579Z,5.10
2023-04-06T01:58:01.321Z,4.80
2023-04-06T02:01:32.175Z,5.50
2023-04-06T02:04:56.107Z,5.43
2023-04-06T02:08:20.131Z,4.60
2023-04-06T02:11:44.206Z,6.23
2023-04-06T02:15:11.646Z,5.32
2023-04-06T02:18:35.941Z,4.27
2023-04-06T02:21:59.663Z,4.20
2023-04-06T02:25:23.505Z,4.80
2023-04-06T02:28:47.741Z,5.87
2023-04-06T02:32:12.950Z,8.37
2023-04-06T02:35:36.969Z,5.27
2023-04-06T02:39:00.984Z,5.10
2023-04-06T02:42:25.805Z,6.97
2023-04-06T02:45:51.029Z,4.10
2023-04-06T02:49:17.429Z,5.40
2023-04-06T02:52:43.189Z,4.27
2023-04-06T02:56:09.280Z,8.67
2023-04-06T02:59:41.658Z,4.67
2023-04-06T03:03:12.638Z,3.77
2023-04-06T03:06:38.532Z,5.60
2023-04-06T03:10:12.321Z,7.13
2023-04-06T03:13:36.384Z,5.67
2023-04-06T03:17:00.548Z,5.00
2023-04-06T03:20:24.599Z,4.43
2023-04-06T03:23:51.832Z,5.07
2023-04-06T03:27:15.643Z,6.30
2023-04-06T03:30:41.368Z,5.30
2023-04-06T03:34:05.636Z,4.97
2023-04-06T03:37:32.261Z,5.70
2023-04-06T03:41:01.228Z,4.80
2023-04-06T03:44:25.525Z,4.00
2023-04-06T03:47:49.566Z,4.80
2023-04-06T03:51:13.930Z,4.27
2023-04-06T03:54:38.372Z,4.50
2023-04-06T03:58:03.555Z,5.73
2023-04-06T04:01:27.585Z,4.43
2023-04-06T04:04:51.662Z,4.83
2023-04-06T04:08:16.246Z,5.53
2023-04-06T04:11:39.951Z,4.57
2023-04-06T04:15:05.910Z,4.83
2023-04-06T04:18:29.802Z,4.73
2023-04-06T04:21:53.814Z,4.80
2023-04-06T04:25:26.075Z,3.57
2023-04-06T04:28:50.737Z,5.07
2023-04-06T04:32:15.953Z,4.87
2023-04-06T04:35:40.867Z,5.53
2023-04-06T04:39:06.950Z,5.70
2023-04-06T04:42:36.031Z,4.23
2023-04-06T04:46:02.270Z,4.30
2023-04-06T04:49:35.791Z,4.47
2023-04-06T04:53:00.817Z,5.63
2023-04-06T04:56:25.222Z,4.80
2023-04-06T04:59:55.511Z,4.77
2023-04-06T05:03:26.565Z,5.27
2023-04-06T05:07:09.304Z,5.03
2023-04-06T05:10:36.701Z,4.70
2023-04-06T05:14:02.098Z,4.40
2023-04-06T05:17:26.648Z,9.70
2023-04-06T05:20:51.310Z,5.03
2023-04-06T05:24:17.355Z,4.33
2023-04-06T05:27:43.266Z,6.57
2023-04-06T05:31:22.378Z,4.33
2023-04-06T05:34:48.271Z,7.03
2023-04-06T05:38:12.238Z,5.43
2023-04-06T05:41:37.359Z,4.90
2023-04-06T05:45:01.439Z,4.97
2023-04-06T05:48:27.175Z,4.90
2023-04-06T05:51:51.281Z,5.43
2023-04-06T05:55:16.085Z,5.20
2023-04-06T05:58:45.375Z,4.03
2023-04-06T06:02:12.582Z,4.17
2023-04-06T06:05:40.539Z,4.20
2023-04-06T06:09:09.534Z,4.30
2023-04-06T06:12:38.935Z,4.90
2023-04-06T06:16:06.361Z,4.40
2023-04-06T06:19:33.321Z,4.23
2023-04-06T06:23:00.412Z,2.87
2023-04-06T06:26:24.562Z,3.53
2023-04-06T06:29:48.380Z,2.47
2023-04-06T06:33:13.872Z,2.90
2023-04-06T06:36:37.671Z,2.53
2023-04-06T06:40:04.777Z,2.60
2023-04-06T06:43:30.712Z,3.10
2023-04-06T06:47:00.363Z,3.23
2023-04-06T06:50:25.569Z,3.60
2023-04-06T06:53:49.974Z,3.40
2023-04-06T06:57:13.885Z,3.23
2023-04-06T07:00:38.137Z,3.93
2023-04-06T07:04:02.256Z,3.73
2023-04-06T07:07:27.443Z,3.67
2023-04-06T07:10:53.473Z,6.87
2023-04-06T07:14:17.833Z,3.30
2023-04-06T07:17:42.587Z,3.40
2023-04-06T07:21:06.810Z,4.07
2023-04-06T07:24:31.938Z,3.90
2023-04-06T07:27:55.615Z,4.63
2023-04-06T07:31:20.157Z,3.33
2023-04-06T07:34:46.024Z,3.83
2023-04-06T07:38:10.450Z,3.77
2023-04-06T07:41:35.712Z,4.20
2023-04-06T07:44:59.535Z,4.00
2023-04-06T07:48:23.430Z,4.03
2023-04-06T07:51:47.161Z,4.93
2023-04-06T07:55:11.409Z,5.97
2023-04-06T07:58:36.565Z,5.67
2023-04-06T08:02:00.387Z,4.30
2023-04-06T08:05:24.210Z,4.00
2023-04-06T08:08:47.850Z,3.93
2023-04-06T08:12:11.532Z,4.57
2023-04-06T08:15:36.666Z,4.17
2023-04-06T08:19:00.340Z,5.43
2023-04-06T08:22:24.089Z,3.97
2023-04-06T08:25:47.958Z,4.37
2023-04-06T08:29:12.414Z,4.73
2023-04-06T08:32:37.608Z,4.50
2023-04-06T08:36:01.410Z,4.40
2023-04-06T08:39:26.686Z,4.47
2023-04-06T08:42:56.622Z,5.13
2023-04-06T08:46:20.668Z,5.10
2023-04-06T08:49:47.724Z,4.33
2023-04-06T08:53:13.216Z,4.83
2023-04-06T08:56:41.245Z,4.20
2023-04-06T09:00:07.733Z,4.63
2023-04-06T09:03:33.697Z,5.30
2023-04-06T09:06:58.876Z,4.60
2023-04-06T09:10:24.249Z,5.50
2023-04-06T09:13:49.766Z,4.30
2023-04-06T09:17:23.701Z,5.30
2023-04-06T09:20:47.440Z,4.60
2023-04-06T09:24:12.503Z,5.57
2023-04-06T09:27:38.787Z,4.50
2023-04-06T09:31:02.538Z,4.83
2023-04-06T09:34:26.322Z,3.77
2023-04-06T09:37:51.225Z,4.53
2023-04-06T09:41:24.935Z,5.10
2023-04-06T09:44:48.713Z,6.03
2023-04-06T09:48:12.673Z,3.50
2023-04-06T09:51:40.390Z,4.73
2023-04-06T09:55:08.989Z,3.30
2023-04-06T09:58:39.378Z,4.13
2023-04-06T10:02:07.251Z,2.97
2023-04-06T10:05:42.970Z,3.10
2023-04-06T10:09:10.307Z,3.10
2023-04-06T10:12:34.218Z,2.83
2023-04-06T10:16:02.540Z,3.20
2023-04-06T10:19:34.497Z,2.93
2023-04-06T10:23:07.075Z,3.20
2023-04-06T10:26:31.048Z,2.63
2023-04-06T10:29:54.780Z,2.83
2023-04-06T10:33:22.088Z,2.60
2023-04-06T10:36:45.828Z,3.23
2023-04-06T10:40:22.128Z,3.03
2023-04-06T10:43:47.543Z,2.70
2023-04-06T10:47:19.844Z,2.70
2023-04-06T10:50:47.400Z,2.40
2023-04-06T10:54:14.514Z,3.03
2023-04-06T10:57:38.889Z,3.13
2023-04-06T11:01:02.609Z,3.60
2023-04-06T11:04:28.137Z,3.70
2023-04-06T11:07:53.123Z,3.37
2023-04-06T11:11:19.418Z,3.27
2023-04-06T11:14:43.211Z,2.80
2023-04-06T11:18:07.558Z,3.53
2023-04-06T11:21:37.800Z,2.97
2023-04-06T11:28:39.645Z,3.87
2023-04-06T11:32:05.338Z,3.30
2023-04-06T11:35:28.936Z,2.60
2023-04-06T11:38:52.644Z,3.23
2023-04-06T11:42:24.611Z,2.83
2023-04-06T11:45:48.950Z,2.80
2023-04-06T11:49:17.874Z,3.00
2023-04-06T11:52:43.616Z,2.70
2023-04-06T11:56:08.138Z,2.73
2023-04-06T11:59:33.819Z,2.90
2023-04-06T12:02:57.716Z,2.37
2023-04-06T12:06:21.711Z,2.60
2023-04-06T12:09:45.756Z,3.13
2023-04-06T12:13:09.464Z,3.30
2023-04-06T12:16:35.212Z,2.93
2023-04-06T12:20:05.361Z,2.33
2023-04-06T12:23:33.402Z,2.60
2023-04-06T12:27:08.795Z,2.73
2023-04-06T12:30:34.450Z,2.30
2023-04-06T12:33:59.553Z,2.70
2023-04-06T12:37:23.570Z,2.67
2023-04-06T12:40:47.518Z,2.63
2023-04-06T12:44:12.152Z,3.60
2023-04-06T12:47:36.912Z,2.60
2023-04-06T12:51:04.409Z,2.47
2023-04-06T12:54:29.265Z,2.40
2023-04-06T12:57:53.001Z,3.43
2023-04-06T13:01:17.127Z,2.93
2023-04-06T13:04:41.138Z,2.43
2023-04-06T13:08:06.209Z,1.93
2023-04-06T13:11:29.999Z,2.30
2023-04-06T13:14:53.923Z,2.70
2023-04-06T13:18:18.049Z,2.20
2023-04-06T13:21:42.058Z,2.30
2023-04-06T13:25:07.689Z,2.83
2023-04-06T13:28:32.392Z,2.50
2023-04-06T13:31:56.397Z,2.20
2023-04-06T13:35:20.586Z,2.33
2023-04-06T13:38:44.767Z,3.23
2023-04-06T13:42:11.066Z,2.50
2023-04-06T13:45:35.319Z,2.10
2023-04-06T13:48:59.327Z,2.83
2023-04-06T13:52:23.478Z,2.63
2023-04-06T13:55:55.440Z,6.00
2023-04-06T13:59:20.683Z,2.50
2023-04-06T14:02:44.704Z,2.37
2023-04-06T14:06:20.811Z,2.87
2023-04-06T14:09:53.998Z,2.47
2023-04-06T14:13:18.065Z,2.20
2023-04-06T14:16:44.983Z,2.50
2023-04-06T14:20:14.782Z,2.70
2023-04-06T14:23:38.868Z,3.30
2023-04-06T14:27:03.622Z,3.70
2023-04-06T14:30:28.831Z,2.13
2023-04-06T14:33:55.563Z,1.83
2023-04-06T14:37:19.600Z,2.40
2023-04-06T14:40:43.422Z,3.07
2023-04-06T14:44:07.121Z,3.10
2023-04-06T14:47:31.186Z,2.70
2023-04-06T14:50:57.622Z,2.60
2023-04-06T14:54:21.571Z,2.40
2023-04-06T14:57:45.403Z,2.80
2023-04-06T15:01:09.491Z,2.63
2023-04-06T15:04:35.759Z,4.03
2023-04-06T15:08:00.619Z,3.20
2023-04-06T15:11:24.616Z,3.00
2023-04-06T15:14:48.496Z,2.40
2023-04-06T15:18:13.199Z,2.40
2023-04-06T15:21:36.718Z,2.67
2023-04-06T15:25:01.612Z,2.43
2023-04-06T15:28:25.883Z,2.40
2023-04-06T15:31:49.385Z,2.33
2023-04-06T15:35:13.898Z,2.50
2023-04-06T15:38:37.389Z,2.10
2023-04-06T15:42:02.229Z,3.30
2023-04-06T15:45:26.201Z,3.00
2023-04-06T15:48:50.327Z,2.27
2023-04-06T15:52:14.153Z,2.43
2023-04-06T15:55:37.948Z,2.83
2023-04-06T15:59:04.152Z,3.67
2023-04-06T16:02:28.159Z,2.03
2023-04-06T16:05:59.579Z,2.17
2023-04-06T16:09:31.947Z,2.97
2023-04-06T16:12:55.496Z,1.90
2023-04-06T16:16:20.743Z,2.10
2023-04-06T16:19:44.644Z,2.20
2023-04-06T16:23:08.534Z,2.50
2023-04-06T16:26:32.887Z,3.80
2023-04-06T16:29:56.856Z,2.10
2023-04-06T16:33:23.887Z,2.17
2023-04-06T16:36:47.727Z,2.07
2023-04-06T16:40:12.122Z,2.07
2023-04-06T16:43:36.196Z,2.60
2023-04-06T16:47:25.131Z,2.20
2023-04-06T16:51:16.116Z,2.00
2023-04-06T16:54:39.755Z,2.60
2023-04-06T16:58:03.278Z,3.83
2023-04-06T17:01:29.493Z,3.40
2023-04-06T17:04:53.471Z,3.17
2023-04-06T17:08:18.658Z,4.47
2023-04-06T17:11:46.880Z,5.93
2023-04-06T17:15:11.799Z,4.10
2023-04-06T17:18:35.870Z,5.07
2023-04-06T17:21:59.651Z,5.60
2023-04-06T17:25:24.624Z,5.17
2023-04-06T17:28:48.369Z,4.00
2023-04-06T17:32:12.898Z,3.97
2023-04-06T17:35:36.424Z,6.20
2023-04-06T17:39:00.480Z,5.17
2023-04-06T17:42:25.716Z,3.67
2023-04-06T17:45:51.581Z,3.40
2023-04-06T17:49:15.358Z,4.00
2023-04-06T17:52:39.301Z,4.60
2023-04-06T17:56:04.420Z,3.30
2023-04-06T17:59:29.327Z,2.83
2023-04-06T18:02:53.629Z,2.67
2023-04-06T18:06:17.914Z,4.33
2023-04-06T18:09:41.954Z,3.43
2023-04-06T18:13:05.485Z,3.20
2023-04-06T18:16:30.502Z,3.57
2023-04-06T18:19:54.152Z,2.63
2023-04-06T18:23:18.002Z,4.80
2023-04-06T18:26:41.856Z,3.97
2023-04-06T18:30:06.408Z,3.17
2023-04-06T18:33:32.245Z,4.60
2023-04-06T18:36:56.182Z,2.73
2023-04-06T18:40:33.790Z,2.80
2023-04-06T18:43:57.600Z,3.47
2023-04-06T18:47:21.566Z,3.47
2023-04-06T18:50:55.362Z,3.80
2023-04-06T18:54:19.236Z,2.60
2023-04-06T18:57:42.970Z,3.27
2023-04-06T19:01:06.824Z,2.20
2023-04-06T19:04:31.367Z,2.10
2023-04-06T19:07:56.298Z,2.77
2023-04-06T19:11:22.944Z,2.10
2023-04-06T19:14:51.590Z,2.00
2023-04-06T19:18:15.486Z,2.00
2023-04-06T19:21:39.101Z,4.70
2023-04-06T19:25:04.344Z,2.47
2023-04-06T19:28:28.175Z,2.77
2023-04-06T19:31:52.061Z,3.40
2023-04-06T19:35:15.614Z,2.77
2023-04-06T19:38:39.582Z,5.33
2023-04-06T19:42:05.580Z,2.10
2023-04-06T19:45:29.871Z,2.43
2023-04-06T19:48:53.376Z,1.90
2023-04-06T19:52:17.337Z,2.00
2023-04-06T19:55:40.855Z,1.80
2023-04-06T19:59:05.735Z,3.33
2023-04-06T20:02:29.648Z,1.90
2023-04-06T20:05:53.190Z,2.17
2023-04-06T20:09:17.402Z,2.23
2023-04-06T20:12:42.352Z,1.90
2023-04-06T20:16:07.747Z,1.53
2023-04-06T20:19:31.374Z,3.00
2023-04-06T20:22:55.383Z,3.10
2023-04-06T20:26:19.286Z,1.70
2023-04-06T20:29:44.143Z,1.47
2023-04-06T20:33:09.092Z,1.50
2023-04-06T20:36:33.897Z,2.97
2023-04-06T20:39:57.636Z,1.60
2023-04-06T20:43:25.301Z,2.40
2023-04-06T20:46:50.009Z,2.60
2023-04-06T20:50:15.357Z,2.43
2023-04-06T20:53:39.259Z,2.23
2023-04-06T20:57:03.097Z,2.37
2023-04-06T21:00:27.293Z,2.33
2023-04-06T21:03:51.438Z,1.80
2023-04-06T21:07:16.332Z,2.43
2023-04-06T21:10:39.849Z,2.23
2023-04-06T21:14:03.392Z,2.93
2023-04-06T21:17:27.253Z,1.40
2023-04-06T21:20:51.031Z,1.83
2023-04-06T21:24:16.051Z,2.47
2023-04-06T21:27:39.897Z,2.13
2023-04-06T21:31:08.762Z,2.47
2023-04-06T21:34:32.442Z,3.10
2023-04-06T21:37:56.216Z,1.87
2023-04-06T21:41:21.910Z,1.93
2023-04-06T21:44:45.365Z,2.00
2023-04-06T21:48:08.929Z,1.80
2023-04-06T21:51:32.870Z,1.80
2023-04-06T21:54:56.537Z,1.70
2023-04-06T21:58:22.200Z,1.63
2023-04-06T22:01:45.946Z,1.60
2023-04-06T22:05:10.498Z,2.13
2023-04-06T22:08:34.532Z,2.03
2023-04-06T22:11:58.001Z,2.03
2023-04-06T22:15:23.097Z,2.20
2023-04-06T22:18:46.681Z,2.00
2023-04-06T22:22:10.614Z,1.90
2023-04-06T22:25:35.583Z,2.63
2023-04-06T22:28:59.610Z,2.43
2023-04-06T22:32:24.486Z,2.23
2023-04-06T22:35:48.406Z,2.20
2023-04-06T22:39:12.286Z,2.30
2023-04-06T22:42:36.196Z,2.37
2023-04-06T22:45:59.989Z,1.90
2023-04-06T22:49:24.809Z,2.47
2023-04-06T22:52:48.358Z,3.10
2023-04-06T22:56:11.790Z,2.07
2023-04-06T22:59:35.596Z,2.00
2023-04-06T23:02:59.545Z,3.33
2023-04-06T23:06:24.504Z,2.17
2023-04-06T23:09:47.991Z,2.63
2023-04-06T23:13:11.861Z,2.83
2023-04-06T23:16:35.810Z,2.33
2023-04-06T23:19:59.688Z,2.30
2023-04-06T23:23:24.457Z,2.13
2023-04-06T23:26:47.913Z,2.37
2023-04-06T23:30:12.031Z,2.43
2023-04-06T23:33:36.046Z,2.40
2023-04-06T23:37:01.226Z,2.40
2023-04-06T23:40:26.356Z,3.47
2023-04-06T23:43:50.443Z,2.60
2023-04-06T23:47:14.542Z,3.20
2023-04-06T23:50:38.330Z,3.07
2023-04-06T23:54:02.001Z,2.53
2023-04-06T23:57:29.696Z,2.23
